sensor_id;sensor_type;location;lat;lon;timestamp;pressure;altitude;pressure_sealevel;temperature;humidity
29505;BME280;16452;54.174;12.092;2022-11-30T00:00:39;102312.06;;;5.73;100.00
29505;BME280;16452;54.174;12.092;2022-11-30T00:03:05;102308.75;;;5.58;100.00
29505;BME280;16452;54.174;12.092;2022-11-30T00:05:32;102305.31;;;5.54;100.00
29505;BME280;16452;54.174;12.092;2022-11-30T00:08:00;102295.00;;;5.53;100.00
29505;BME280;16452;54.174;12.092;2022-11-30T00:10:25;102303.50;;;5.68;100.00
29505;BME280;16452;54.174;12.092;2022-11-30T00:12:53;102308.53;;;5.93;100.00
29505;BME280;16452;54.174;12.092;2022-11-30T00:15:19;102304.16;;;5.99;100.00
29505;BME280;16452;54.174;12.092;2022-11-30T00:17:45;102313.72;;;5.85;100.00
29505;BME280;16452;54.174;12.092;2022-11-30T00:20:13;102307.66;;;5.94;100.00
29505;BME280;16452;54.174;12.092;2022-11-30T00:22:39;102317.09;;;5.99;100.00
29505;BME280;16452;54.174;12.092;2022-11-30T00:25:06;102319.75;;;5.86;100.00
29505;BME280;16452;54.174;12.092;2022-11-30T00:27:33;102323.28;;;5.74;100.00
29505;BME280;16452;54.174;12.092;2022-11-30T00:29:59;102322.31;;;5.89;100.00
29505;BME280;16452;54.174;12.092;2022-11-30T00:32:26;102329.31;;;5.71;100.00
29505;BME280;16452;54.174;12.092;2022-11-30T00:34:53;102323.31;;;5.68;100.00
29505;BME280;16452;54.174;12.092;2022-11-30T00:37:19;102329.28;;;5.77;100.00
29505;BME280;16452;54.174;12.092;2022-11-30T00:39:45;102340.56;;;5.70;100.00
29505;BME280;16452;54.174;12.092;2022-11-30T00:42:11;102328.56;;;5.56;100.00
29505;BME280;16452;54.174;12.092;2022-11-30T00:44:36;102331.13;;;5.63;100.00
29505;BME280;16452;54.174;12.092;2022-11-30T00:47:02;102332.06;;;5.50;100.00
29505;BME280;16452;54.174;12.092;2022-11-30T00:49:28;102327.63;;;5.70;100.00
29505;BME280;16452;54.174;12.092;2022-11-30T00:51:54;102328.53;;;5.65;100.00
29505;BME280;16452;54.174;12.092;2022-11-30T00:54:20;102330.25;;;5.63;100.00
29505;BME280;16452;54.174;12.092;2022-11-30T00:56:45;102334.53;;;5.65;100.00
29505;BME280;16452;54.174;12.092;2022-11-30T00:59:11;102330.25;;;5.64;100.00
29505;BME280;16452;54.174;12.092;2022-11-30T01:01:37;102329.41;;;5.64;100.00
29505;BME280;16452;54.174;12.092;2022-11-30T01:04:03;102329.22;;;5.87;100.00
29505;BME280;16452;54.174;12.092;2022-11-30T01:06:29;102332.66;;;5.90;100.00
29505;BME280;16452;54.174;12.092;2022-11-30T01:08:55;102326.72;;;5.73;100.00
29505;BME280;16452;54.174;12.092;2022-11-30T01:11:24;102332.03;;;5.55;100.00
29505;BME280;16452;54.174;12.092;2022-11-30T01:13:51;102327.72;;;5.55;100.00
29505;BME280;16452;54.174;12.092;2022-11-30T01:16:25;102323.19;;;5.91;100.00
29505;BME280;16452;54.174;12.092;2022-11-30T01:18:51;102331.19;;;5.48;100.00
29505;BME280;16452;54.174;12.092;2022-11-30T01:21:24;102328.53;;;5.60;100.00
29505;BME280;16452;54.174;12.092;2022-11-30T01:23:50;102337.19;;;5.56;100.00
29505;BME280;16452;54.174;12.092;2022-11-30T01:26:16;102330.19;;;5.73;100.00
29505;BME280;16452;54.174;12.092;2022-11-30T01:28:43;102328.53;;;5.63;100.00
29505;BME280;16452;54.174;12.092;2022-11-30T01:31:13;102337.16;;;5.62;100.00
29505;BME280;16452;54.174;12.092;2022-11-30T01:33:40;102328.47;;;5.71;100.00
29505;BME280;16452;54.174;12.092;2022-11-30T01:38:39;102331.84;;;5.81;100.00
29505;BME280;16452;54.174;12.092;2022-11-30T01:41:07;102329.22;;;5.84;100.00
29505;BME280;16452;54.174;12.092;2022-11-30T01:43:44;102339.78;;;5.55;100.00
29505;BME280;16452;54.174;12.092;2022-11-30T01:47:02;102333.59;;;5.77;100.00
29505;BME280;16452;54.174;12.092;2022-11-30T01:49:43;102341.38;;;5.71;100.00
29505;BME280;16452;54.174;12.092;2022-11-30T01:52:28;102344.13;;;5.53;100.00
29505;BME280;16452;54.174;12.092;2022-11-30T01:55:28;102343.22;;;5.54;100.00
29505;BME280;16452;54.174;12.092;2022-11-30T01:58:12;102350.97;;;5.54;100.00
29505;BME280;16452;54.174;12.092;2022-11-30T02:00:44;102342.16;;;5.85;100.00
29505;BME280;16452;54.174;12.092;2022-11-30T02:05:39;102346.63;;;5.60;100.00
29505;BME280;16452;54.174;12.092;2022-11-30T02:08:07;102348.41;;;5.48;100.00
29505;BME280;16452;54.174;12.092;2022-11-30T02:10:38;102342.38;;;5.50;100.00
29505;BME280;16452;54.174;12.092;2022-11-30T02:25:25;102344.88;;;5.67;100.00
29505;BME280;16452;54.174;12.092;2022-11-30T02:30:41;102343.34;;;5.35;100.00
29505;BME280;16452;54.174;12.092;2022-11-30T02:33:14;102344.13;;;5.51;100.00
29505;BME280;16452;54.174;12.092;2022-11-30T02:35:46;102344.13;;;5.50;100.00
29505;BME280;16452;54.174;12.092;2022-11-30T02:38:14;102341.47;;;5.60;100.00
29505;BME280;16452;54.174;12.092;2022-11-30T02:40:43;102350.19;;;5.43;100.00
29505;BME280;16452;54.174;12.092;2022-11-30T02:43:09;102351.94;;;5.36;100.00
29505;BME280;16452;54.174;12.092;2022-11-30T02:45:51;102349.22;;;5.60;100.00
29505;BME280;16452;54.174;12.092;2022-11-30T02:51:22;102354.38;;;5.60;100.00
29505;BME280;16452;54.174;12.092;2022-11-30T02:53:49;102343.25;;;5.49;100.00
29505;BME280;16452;54.174;12.092;2022-11-30T02:56:16;102349.25;;;5.59;100.00
29505;BME280;16452;54.174;12.092;2022-11-30T02:58:44;102353.69;;;5.35;100.00
29505;BME280;16452;54.174;12.092;2022-11-30T03:01:09;102349.22;;;5.63;100.00
29505;BME280;16452;54.174;12.092;2022-11-30T03:03:35;102353.56;;;5.55;100.00
29505;BME280;16452;54.174;12.092;2022-11-30T03:06:01;102354.22;;;5.86;100.00
29505;BME280;16452;54.174;12.092;2022-11-30T03:08:27;102359.63;;;5.53;100.00
29505;BME280;16452;54.174;12.092;2022-11-30T03:10:52;102358.72;;;5.58;100.00
29505;BME280;16452;54.174;12.092;2022-11-30T03:13:18;102355.31;;;5.53;100.00
29505;BME280;16452;54.174;12.092;2022-11-30T03:15:44;102355.34;;;5.47;100.00
29505;BME280;16452;54.174;12.092;2022-11-30T03:18:10;102355.31;;;5.53;100.00
29505;BME280;16452;54.174;12.092;2022-11-30T03:20:40;102359.56;;;5.60;100.00
29505;BME280;16452;54.174;12.092;2022-11-30T03:23:09;102358.75;;;5.48;100.00
29505;BME280;16452;54.174;12.092;2022-11-30T03:25:35;102353.69;;;5.34;100.00
29505;BME280;16452;54.174;12.092;2022-11-30T03:28:01;102367.38;;;5.50;100.00
29505;BME280;16452;54.174;12.092;2022-11-30T03:30:27;102362.13;;;5.62;100.00
29505;BME280;16452;54.174;12.092;2022-11-30T03:32:53;102368.13;;;5.65;100.00
29505;BME280;16452;54.174;12.092;2022-11-30T03:35:19;102368.13;;;5.70;100.00
29505;BME280;16452;54.174;12.092;2022-11-30T03:37:45;102371.56;;;5.70;100.00
29505;BME280;16452;54.174;12.092;2022-11-30T03:40:12;102371.56;;;5.69;100.00
29505;BME280;16452;54.174;12.092;2022-11-30T03:42:38;102372.44;;;5.69;100.00
29505;BME280;16452;54.174;12.092;2022-11-30T03:45:04;102373.34;;;5.62;100.00
29505;BME280;16452;54.174;12.092;2022-11-30T03:47:30;102364.72;;;5.60;100.00
29505;BME280;16452;54.174;12.092;2022-11-30T03:49:55;102372.44;;;5.69;100.00
29505;BME280;16452;54.174;12.092;2022-11-30T03:52:21;102374.16;;;5.70;100.00
29505;BME280;16452;54.174;12.092;2022-11-30T03:54:47;102384.69;;;5.32;100.00
29505;BME280;16452;54.174;12.092;2022-11-30T03:57:12;102372.41;;;5.72;100.00
29505;BME280;16452;54.174;12.092;2022-11-30T03:59:38;102383.84;;;5.29;100.00
29505;BME280;16452;54.174;12.092;2022-11-30T04:02:04;102384.66;;;5.42;100.00
29505;BME280;16452;54.174;12.092;2022-11-30T04:04:29;102383.78;;;5.44;100.00
29505;BME280;16452;54.174;12.092;2022-11-30T04:06:55;102383.66;;;5.68;100.00
29505;BME280;16452;54.174;12.092;2022-11-30T04:09:21;102382.72;;;5.77;100.00
29505;BME280;16452;54.174;12.092;2022-11-30T04:11:46;102389.72;;;5.61;100.00
29505;BME280;16452;54.174;12.092;2022-11-30T04:14:12;102384.53;;;5.63;100.00
29505;BME280;16452;54.174;12.092;2022-11-30T04:16:38;102387.09;;;5.70;100.00
29505;BME280;16452;54.174;12.092;2022-11-30T04:19:04;102385.41;;;5.63;100.00
29505;BME280;16452;54.174;12.092;2022-11-30T04:21:29;102387.09;;;5.69;100.00
29505;BME280;16452;54.174;12.092;2022-11-30T04:23:55;102387.88;;;5.82;100.00
29505;BME280;16452;54.174;12.092;2022-11-30T04:26:21;102387.13;;;5.64;100.00
29505;BME280;16452;54.174;12.092;2022-11-30T04:28:46;102389.69;;;5.66;100.00
29505;BME280;16452;54.174;12.092;2022-11-30T04:31:12;102385.28;;;5.80;100.00
29505;BME280;16452;54.174;12.092;2022-11-30T04:33:38;102393.00;;;5.92;100.00
29505;BME280;16452;54.174;12.092;2022-11-30T04:36:06;102383.63;;;5.70;100.00
29505;BME280;16452;54.174;12.092;2022-11-30T04:38:32;102394.88;;;5.63;100.00
29505;BME280;16452;54.174;12.092;2022-11-30T04:40:58;102390.50;;;5.72;100.00
29505;BME280;16452;54.174;12.092;2022-11-30T04:43:25;102383.66;;;5.67;100.00
29505;BME280;16452;54.174;12.092;2022-11-30T04:45:51;102387.13;;;5.61;100.00
29505;BME280;16452;54.174;12.092;2022-11-30T04:48:18;102394.78;;;5.81;100.00
29505;BME280;16452;54.174;12.092;2022-11-30T04:50:44;102389.56;;;5.90;100.00
29505;BME280;16452;54.174;12.092;2022-11-30T04:53:10;102384.38;;;5.93;100.00
29505;BME280;16452;54.174;12.092;2022-11-30T04:55:37;102390.38;;;6.00;100.00
29505;BME280;16452;54.174;12.092;2022-11-30T04:58:04;102398.16;;;5.97;100.00
29505;BME280;16452;54.174;12.092;2022-11-30T05:00:30;102399.13;;;5.73;100.00
29505;BME280;16452;54.174;12.092;2022-11-30T05:02:56;102396.50;;;5.79;100.00
29505;BME280;16452;54.174;12.092;2022-11-30T05:05:23;102392.28;;;5.60;100.00
29505;BME280;16452;54.174;12.092;2022-11-30T05:07:56;102387.06;;;5.73;100.00
29505;BME280;16452;54.174;12.092;2022-11-30T05:10:22;102392.25;;;5.70;100.00
29505;BME280;16452;54.174;12.092;2022-11-30T05:12:48;102393.06;;;5.77;100.00
29505;BME280;16452;54.174;12.092;2022-11-30T05:15:15;102400.84;;;5.72;100.00
29505;BME280;16452;54.174;12.092;2022-11-30T05:17:41;102393.97;;;5.65;100.00
29505;BME280;16452;54.174;12.092;2022-11-30T05:20:07;102393.94;;;5.74;100.00
29505;BME280;16452;54.174;12.092;2022-11-30T05:22:33;102396.66;;;5.49;100.00
29505;BME280;16452;54.174;12.092;2022-11-30T05:24:59;102399.19;;;5.61;100.00
29505;BME280;16452;54.174;12.092;2022-11-30T05:27:25;102403.38;;;5.88;100.00
29505;BME280;16452;54.174;12.092;2022-11-30T05:29:51;102407.63;;;5.98;100.00
29505;BME280;16452;54.174;12.092;2022-11-30T05:32:17;102404.22;;;5.87;100.00
29505;BME280;16452;54.174;12.092;2022-11-30T05:34:43;102406.84;;;5.79;100.00
29505;BME280;16452;54.174;12.092;2022-11-30T05:37:08;102409.50;;;5.70;100.00
29505;BME280;16452;54.174;12.092;2022-11-30T05:39:34;102404.31;;;5.68;100.00
29505;BME280;16452;54.174;12.092;2022-11-30T05:42:00;102408.66;;;5.65;100.00
29505;BME280;16452;54.174;12.092;2022-11-30T05:44:25;102419.81;;;5.73;100.00
29505;BME280;16452;54.174;12.092;2022-11-30T05:46:51;102420.66;;;5.75;100.00
29505;BME280;16452;54.174;12.092;2022-11-30T05:49:17;102412.00;;;5.77;100.00
29505;BME280;16452;54.174;12.092;2022-11-30T05:51:42;102419.84;;;5.68;100.00
29505;BME280;16452;54.174;12.092;2022-11-30T05:54:08;102423.34;;;5.55;100.00
29505;BME280;16452;54.174;12.092;2022-11-30T05:56:34;102418.94;;;5.72;100.00
29505;BME280;16452;54.174;12.092;2022-11-30T05:59:00;102423.22;;;5.87;100.00
29505;BME280;16452;54.174;12.092;2022-11-30T06:01:27;102411.13;;;5.85;100.00
29505;BME280;16452;54.174;12.092;2022-11-30T06:03:54;102416.28;;;5.92;100.00
29505;BME280;16452;54.174;12.092;2022-11-30T06:06:20;102414.63;;;5.73;100.00
29505;BME280;16452;54.174;12.092;2022-11-30T06:08:47;102412.81;;;5.98;100.00
29505;BME280;16452;54.174;12.092;2022-11-30T06:11:14;102422.44;;;5.62;100.00
29505;BME280;16452;54.174;12.092;2022-11-30T06:13:40;102416.28;;;5.83;100.00
29505;BME280;16452;54.174;12.092;2022-11-30T06:16:06;102417.25;;;5.67;100.00
29505;BME280;16452;54.174;12.092;2022-11-30T06:18:33;102412.06;;;5.70;100.00
29505;BME280;16452;54.174;12.092;2022-11-30T06:21:08;102417.25;;;5.67;100.00
29505;BME280;16452;54.174;12.092;2022-11-30T06:23:34;102437.97;;;5.59;100.00
29505;BME280;16452;54.174;12.092;2022-11-30T06:26:10;102433.69;;;5.49;100.00
29505;BME280;16452;54.174;12.092;2022-11-30T06:28:36;102435.34;;;5.67;100.00
29505;BME280;16452;54.174;12.092;2022-11-30T06:31:05;102432.66;;;5.85;100.00
29505;BME280;16452;54.174;12.092;2022-11-30T06:33:31;102433.53;;;5.84;100.00
29505;BME280;16452;54.174;12.092;2022-11-30T06:35:57;102437.84;;;5.85;100.00
29505;BME280;16452;54.174;12.092;2022-11-30T06:38:23;102446.47;;;5.89;100.00
29505;BME280;16452;54.174;12.092;2022-11-30T06:40:51;102445.59;;;5.90;100.00
29505;BME280;16452;54.174;12.092;2022-11-30T06:43:17;102450.00;;;5.69;100.00
29505;BME280;16452;54.174;12.092;2022-11-30T06:45:44;102455.94;;;5.84;100.00
29505;BME280;16452;54.174;12.092;2022-11-30T06:48:12;102451.66;;;5.81;100.00
29505;BME280;16452;54.174;12.092;2022-11-30T06:50:38;102458.53;;;5.90;100.00
29505;BME280;16452;54.174;12.092;2022-11-30T06:53:07;102455.91;;;5.99;100.00
29505;BME280;16452;54.174;12.092;2022-11-30T06:55:32;102461.13;;;5.81;100.00
29505;BME280;16452;54.174;12.092;2022-11-30T06:58:07;102455.91;;;5.94;100.00
29505;BME280;16452;54.174;12.092;2022-11-30T07:00:34;102461.13;;;5.90;100.00
29505;BME280;16452;54.174;12.092;2022-11-30T07:03:01;102466.22;;;6.05;100.00
29505;BME280;16452;54.174;12.092;2022-11-30T07:05:27;102463.59;;;6.06;100.00
29505;BME280;16452;54.174;12.092;2022-11-30T07:07:54;102472.31;;;5.92;100.00
29505;BME280;16452;54.174;12.092;2022-11-30T07:10:19;102468.03;;;5.80;100.00
29505;BME280;16452;54.174;12.092;2022-11-30T07:12:48;102473.22;;;5.78;100.00
29505;BME280;16452;54.174;12.092;2022-11-30T07:15:14;102478.38;;;5.77;100.00
29505;BME280;16452;54.174;12.092;2022-11-30T07:17:39;102479.28;;;5.74;100.00
29505;BME280;16452;54.174;12.092;2022-11-30T07:20:06;102474.97;;;5.67;100.00
29505;BME280;16452;54.174;12.092;2022-11-30T07:22:32;102485.28;;;5.87;100.00
29505;BME280;16452;54.174;12.092;2022-11-30T07:24:57;102482.72;;;5.76;100.00
29505;BME280;16452;54.174;12.092;2022-11-30T07:27:41;102474.03;;;5.90;100.00
29505;BME280;16452;54.174;12.092;2022-11-30T07:30:08;102480.97;;;5.82;100.00
29505;BME280;16452;54.174;12.092;2022-11-30T07:32:34;102485.25;;;5.93;100.00
29505;BME280;16452;54.174;12.092;2022-11-30T07:34:59;102488.69;;;5.92;100.00
29505;BME280;16452;54.174;12.092;2022-11-30T07:37:25;102489.59;;;5.77;100.00
29505;BME280;16452;54.174;12.092;2022-11-30T07:39:51;102489.56;;;5.93;100.00
29505;BME280;16452;54.174;12.092;2022-11-30T07:42:17;102494.69;;;5.99;100.00
29505;BME280;16452;54.174;12.092;2022-11-30T07:44:42;102492.94;;;6.02;100.00
29505;BME280;16452;54.174;12.092;2022-11-30T07:47:08;102491.19;;;6.09;100.00
29505;BME280;16452;54.174;12.092;2022-11-30T07:49:34;102498.13;;;6.01;100.00
29505;BME280;16452;54.174;12.092;2022-11-30T07:51:59;102506.75;;;6.01;100.00
29505;BME280;16452;54.174;12.092;2022-11-30T07:54:31;102504.19;;;5.97;100.00
29505;BME280;16452;54.174;12.092;2022-11-30T07:56:58;102507.59;;;6.05;100.00
29505;BME280;16452;54.174;12.092;2022-11-30T07:59:24;102503.31;;;5.96;100.00
29505;BME280;16452;54.174;12.092;2022-11-30T08:01:50;102505.09;;;5.93;100.00
29505;BME280;16452;54.174;12.092;2022-11-30T08:04:15;102508.53;;;5.78;100.00
29505;BME280;16452;54.174;12.092;2022-11-30T08:06:42;102511.06;;;6.05;100.00
29505;BME280;16452;54.174;12.092;2022-11-30T08:09:10;102508.53;;;5.83;100.00
29505;BME280;16452;54.174;12.092;2022-11-30T08:11:37;102515.44;;;5.91;100.00
29505;BME280;16452;54.174;12.092;2022-11-30T08:14:03;102517.16;;;5.89;100.00
29505;BME280;16452;54.174;12.092;2022-11-30T08:16:34;102520.47;;;6.15;100.00
29505;BME280;16452;54.174;12.092;2022-11-30T08:19:01;102517.91;;;6.12;100.00
29505;BME280;16452;54.174;12.092;2022-11-30T08:21:27;102519.72;;;6.00;100.00
29505;BME280;16452;54.174;12.092;2022-11-30T08:23:55;102520.47;;;6.17;100.00
29505;BME280;16452;54.174;12.092;2022-11-30T08:26:27;102527.34;;;6.18;100.00
29505;BME280;16452;54.174;12.092;2022-11-30T08:28:54;102528.22;;;6.18;100.00
29505;BME280;16452;54.174;12.092;2022-11-30T08:31:25;102523.09;;;6.09;100.00
29505;BME280;16452;54.174;12.092;2022-11-30T08:34:08;102522.28;;;6.00;100.00
29505;BME280;16452;54.174;12.092;2022-11-30T08:36:35;102528.34;;;5.97;100.00
29505;BME280;16452;54.174;12.092;2022-11-30T08:39:02;102536.06;;;6.00;100.00
29505;BME280;16452;54.174;12.092;2022-11-30T08:41:30;102529.22;;;5.89;100.00
29505;BME280;16452;54.174;12.092;2022-11-30T08:44:01;102536.97;;;5.92;100.00
29505;BME280;16452;54.174;12.092;2022-11-30T08:46:27;102539.56;;;5.90;100.00
29505;BME280;16452;54.174;12.092;2022-11-30T08:48:53;102548.16;;;5.98;100.00
29505;BME280;16452;54.174;12.092;2022-11-30T08:51:20;102542.06;;;6.11;100.00
29505;BME280;16452;54.174;12.092;2022-11-30T08:53:47;102541.31;;;5.74;100.00
29505;BME280;16452;54.174;12.092;2022-11-30T08:56:17;102536.94;;;5.95;100.00
29505;BME280;16452;54.174;12.092;2022-11-30T08:58:44;102542.16;;;5.93;100.00
29505;BME280;16452;54.174;12.092;2022-11-30T09:01:17;102549.00;;;6.00;100.00
29505;BME280;16452;54.174;12.092;2022-11-30T09:03:45;102551.66;;;5.82;100.00
29505;BME280;16452;54.174;12.092;2022-11-30T09:06:18;102544.75;;;5.78;100.00
29505;BME280;16452;54.174;12.092;2022-11-30T09:08:46;102553.38;;;5.94;100.00
29505;BME280;16452;54.174;12.092;2022-11-30T09:11:21;102547.28;;;6.02;100.00
29505;BME280;16452;54.174;12.092;2022-11-30T09:13:48;102552.53;;;5.75;100.00
29505;BME280;16452;54.174;12.092;2022-11-30T09:16:17;102549.03;;;5.84;100.00
29505;BME280;16452;54.174;12.092;2022-11-30T09:18:43;102549.09;;;5.76;100.00
29505;BME280;16452;54.174;12.092;2022-11-30T09:21:12;102555.06;;;5.86;100.00
29505;BME280;16452;54.174;12.092;2022-11-30T09:23:39;102549.03;;;5.84;100.00
29505;BME280;16452;54.174;12.092;2022-11-30T09:26:08;102550.69;;;6.06;100.00
29505;BME280;16452;54.174;12.092;2022-11-30T09:28:37;102554.22;;;5.90;100.00
29505;BME280;16452;54.174;12.092;2022-11-30T09:31:10;102559.41;;;5.88;100.00
29505;BME280;16452;54.174;12.092;2022-11-30T09:33:36;102554.19;;;5.94;100.00
29505;BME280;16452;54.174;12.092;2022-11-30T09:36:06;102551.53;;;6.17;100.00
29505;BME280;16452;54.174;12.092;2022-11-30T09:38:33;102560.09;;;6.28;100.00
29505;BME280;16452;54.174;12.092;2022-11-30T09:41:14;102566.28;;;5.92;100.00
29505;BME280;16452;54.174;12.092;2022-11-30T09:43:53;102561.03;;;6.07;100.00
29505;BME280;16452;54.174;12.092;2022-11-30T09:46:32;102564.56;;;5.77;100.00
29505;BME280;16452;54.174;12.092;2022-11-30T09:49:40;102560.25;;;5.92;100.00
29505;BME280;16452;54.174;12.092;2022-11-30T09:52:20;102559.38;;;5.99;100.00
29505;BME280;16452;54.174;12.092;2022-11-30T09:54:51;102559.34;;;6.00;100.00
29505;BME280;16452;54.174;12.092;2022-11-30T09:57:54;102560.22;;;6.04;100.00
29505;BME280;16452;54.174;12.092;2022-11-30T10:00:23;102562.78;;;6.01;100.00
29505;BME280;16452;54.174;12.092;2022-11-30T10:02:51;102558.41;;;6.19;100.00
29505;BME280;16452;54.174;12.092;2022-11-30T10:08:44;102552.41;;;6.08;100.00
29505;BME280;16452;54.174;12.092;2022-11-30T10:14:44;102541.22;;;6.00;100.00
29505;BME280;16452;54.174;12.092;2022-11-30T10:26:25;102534.25;;;6.21;100.00
29505;BME280;16452;54.174;12.092;2022-11-30T10:29:03;102542.03;;;6.16;100.00
29505;BME280;16452;54.174;12.092;2022-11-30T10:31:35;102541.22;;;6.09;100.00
29505;BME280;16452;54.174;12.092;2022-11-30T10:34:23;102538.53;;;6.26;100.00
29505;BME280;16452;54.174;12.092;2022-11-30T10:37:02;102538.59;;;6.14;100.00
29505;BME280;16452;54.174;12.092;2022-11-30T10:40:04;102533.41;;;6.14;100.00
29505;BME280;16452;54.174;12.092;2022-11-30T10:42:53;102533.38;;;6.20;100.00
29505;BME280;16452;54.174;12.092;2022-11-30T10:45:24;102536.94;;;5.99;100.00
29505;BME280;16452;54.174;12.092;2022-11-30T10:48:44;102541.19;;;6.12;100.00
29505;BME280;16452;54.174;12.092;2022-11-30T10:51:13;102541.25;;;5.96;100.00
29505;BME280;16452;54.174;12.092;2022-11-30T10:54:24;102539.50;;;6.05;100.00
29505;BME280;16452;54.174;12.092;2022-11-30T10:56:49;102546.50;;;5.76;100.00
29505;BME280;16452;54.174;12.092;2022-11-30T10:59:41;102543.81;;;6.03;100.00
29505;BME280;16452;54.174;12.092;2022-11-30T11:05:27;102547.38;;;5.69;100.00
29505;BME280;16452;54.174;12.092;2022-11-30T11:08:18;102544.66;;;6.07;100.00
29505;BME280;16452;54.174;12.092;2022-11-30T11:10:49;102545.53;;;6.03;100.00
29505;BME280;16452;54.174;12.092;2022-11-30T11:13:37;102542.75;;;6.39;100.00
29505;BME280;16452;54.174;12.092;2022-11-30T11:16:06;102547.13;;;6.33;100.00
29505;BME280;16452;54.174;12.092;2022-11-30T11:18:35;102555.88;;;6.06;100.00
29505;BME280;16452;54.174;12.092;2022-11-30T11:23:41;102549.03;;;5.99;100.00
29505;BME280;16452;54.174;12.092;2022-11-30T11:26:28;102556.78;;;5.96;100.00
29505;BME280;16452;54.174;12.092;2022-11-30T11:28:56;102562.78;;;6.01;100.00
29505;BME280;16452;54.174;12.092;2022-11-30T11:31:44;102554.19;;;5.94;100.00
29505;BME280;16452;54.174;12.092;2022-11-30T11:34:30;102550.63;;;6.18;100.00
29505;BME280;16452;54.174;12.092;2022-11-30T11:39:41;102560.13;;;6.17;100.00
29505;BME280;16452;54.174;12.092;2022-11-30T11:42:17;102561.91;;;6.08;100.00
29505;BME280;16452;54.174;12.092;2022-11-30T11:44:54;102559.28;;;6.14;100.00
29505;BME280;16452;54.174;12.092;2022-11-30T11:47:37;102554.13;;;6.17;100.00
29505;BME280;16452;54.174;12.092;2022-11-30T11:50:20;102560.19;;;6.01;100.00
29505;BME280;16452;54.174;12.092;2022-11-30T11:52:47;102562.75;;;6.14;100.00
29505;BME280;16452;54.174;12.092;2022-11-30T11:55:17;102579.09;;;6.21;100.00
29505;BME280;16452;54.174;12.092;2022-11-30T11:57:56;102567.88;;;6.22;100.00
29505;BME280;16452;54.174;12.092;2022-11-30T12:00:27;102565.34;;;6.08;100.00
29505;BME280;16452;54.174;12.092;2022-11-30T12:03:18;102573.00;;;6.30;100.00
29505;BME280;16452;54.174;12.092;2022-11-30T12:05:56;102567.84;;;6.27;100.00
29505;BME280;16452;54.174;12.092;2022-11-30T12:09:04;102567.84;;;6.28;100.00
29505;BME280;16452;54.174;12.092;2022-11-30T12:11:42;102573.94;;;6.15;100.00
29505;BME280;16452;54.174;12.092;2022-11-30T12:14:15;102572.25;;;6.11;100.00
29505;BME280;16452;54.174;12.092;2022-11-30T12:17:00;102565.41;;;5.96;100.00
29505;BME280;16452;54.174;12.092;2022-11-30T12:26:20;102566.09;;;6.33;100.00
29505;BME280;16452;54.174;12.092;2022-11-30T12:32:19;102562.53;;;6.51;100.00
29505;BME280;16452;54.174;12.092;2022-11-30T12:37:51;102569.34;;;6.67;100.00
29505;BME280;16452;54.174;12.092;2022-11-30T12:40:46;102576.31;;;6.54;100.00
29505;BME280;16452;54.174;12.092;2022-11-30T12:43:53;102576.34;;;6.51;100.00
29505;BME280;16452;54.174;12.092;2022-11-30T12:51:59;102580.72;;;6.36;100.00
29505;BME280;16452;54.174;12.092;2022-11-30T12:57:12;102586.84;;;6.23;100.00
29505;BME280;16452;54.174;12.092;2022-11-30T13:00:05;102582.56;;;6.14;100.00
29505;BME280;16452;54.174;12.092;2022-11-30T13:05:07;102595.50;;;6.23;100.00
29505;BME280;16452;54.174;12.092;2022-11-30T13:07:51;102591.13;;;6.30;100.00
29505;BME280;16452;54.174;12.092;2022-11-30T13:13:21;102598.84;;;6.40;100.00
29505;BME280;16452;54.174;12.092;2022-11-30T13:15:50;102601.50;;;6.28;100.00
29505;BME280;16452;54.174;12.092;2022-11-30T13:18:20;102596.31;;;6.25;100.00
29505;BME280;16452;54.174;12.092;2022-11-30T13:20:54;102595.44;;;6.29;100.00
29505;BME280;16452;54.174;12.092;2022-11-30T13:23:42;102604.09;;;6.19;100.00
29505;BME280;16452;54.174;12.092;2022-11-30T13:32:21;102604.22;;;5.99;100.00
29505;BME280;16452;54.174;12.092;2022-11-30T13:34:47;102592.91;;;6.15;100.00
29505;BME280;16452;54.174;12.092;2022-11-30T13:37:20;102594.66;;;6.10;100.00
29505;BME280;16452;54.174;12.092;2022-11-30T13:39:54;102593.88;;;5.92;100.00
29505;BME280;16452;54.174;12.092;2022-11-30T13:42:40;102594.63;;;6.18;100.00
29505;BME280;16452;54.174;12.092;2022-11-30T13:47:53;102593.84;;;6.04;100.00
29505;BME280;16452;54.174;12.092;2022-11-30T13:50:38;102599.00;;;6.04;100.00
29505;BME280;16452;54.174;12.092;2022-11-30T13:53:16;102599.78;;;6.19;100.00
29505;BME280;16452;54.174;12.092;2022-11-30T13:56:00;102593.63;;;6.42;100.00
29505;BME280;16452;54.174;12.092;2022-11-30T13:58:27;102591.13;;;6.33;100.00
29505;BME280;16452;54.174;12.092;2022-11-30T14:01:26;102597.69;;;6.84;100.00
29505;BME280;16452;54.174;12.092;2022-11-30T14:14:58;102601.41;;;6.42;100.00
29505;BME280;16452;54.174;12.092;2022-11-30T14:17:29;102602.16;;;6.62;100.00
29505;BME280;16452;54.174;12.092;2022-11-30T14:20:06;102609.13;;;6.49;100.00
29505;BME280;16452;54.174;12.092;2022-11-30T14:22:33;102602.34;;;6.24;100.00
29505;BME280;16452;54.174;12.092;2022-11-30T14:25:00;102601.53;;;6.19;100.00
29505;BME280;16452;54.174;12.092;2022-11-30T14:27:28;102605.84;;;6.22;100.00
29505;BME280;16452;54.174;12.092;2022-11-30T14:30:00;102604.88;;;6.36;100.00
29505;BME280;16452;54.174;12.092;2022-11-30T14:32:35;102608.28;;;6.50;100.00